createdAt,value
2018-06-25T00:00:27.863Z,17.80
2018-06-25T00:02:56.358Z,17.70
2018-06-25T00:05:24.712Z,17.80
2018-06-25T00:07:53.047Z,17.80
2018-06-25T00:10:21.709Z,17.70
2018-06-25T00:12:50.210Z,17.70
2018-06-25T00:15:18.539Z,17.60
2018-06-25T00:17:46.884Z,17.70
2018-06-25T00:20:15.291Z,17.70
2018-06-25T00:22:43.634Z,17.70
2018-06-25T00:25:11.967Z,17.70
2018-06-25T00:27:40.599Z,17.80
2018-06-25T00:30:09.262Z,17.70
2018-06-25T00:32:37.592Z,17.80
2018-06-25T00:35:06.143Z,17.80
2018-06-25T00:37:34.474Z,17.70
2018-06-25T00:40:02.844Z,17.70
2018-06-25T00:42:31.206Z,17.80
2018-06-25T00:44:59.548Z,17.70
2018-06-25T00:47:27.882Z,17.70
2018-06-25T00:49:56.225Z,17.70
2018-06-25T00:52:24.629Z,17.60
2018-06-25T00:54:53.001Z,17.70
2018-06-25T00:57:21.410Z,17.60
2018-06-25T00:59:52.324Z,17.60
2018-06-25T01:02:21.201Z,17.50
2018-06-25T01:04:49.675Z,17.50
2018-06-25T01:07:18.846Z,17.50
2018-06-25T01:09:47.328Z,17.50
2018-06-25T01:12:15.899Z,17.50
2018-06-25T01:14:44.898Z,17.50
2018-06-25T01:17:13.310Z,17.50
2018-06-25T01:19:41.670Z,17.50
2018-06-25T01:22:10.780Z,17.50
2018-06-25T01:24:39.577Z,17.50
2018-06-25T01:27:08.831Z,17.50
2018-06-25T01:29:39.230Z,17.50
2018-06-25T01:32:07.617Z,17.50
2018-06-25T01:34:36.018Z,17.40
2018-06-25T01:37:04.396Z,17.40
2018-06-25T01:39:32.890Z,17.30
2018-06-25T01:42:01.310Z,17.40
2018-06-25T01:44:29.741Z,17.40
2018-06-25T01:46:58.420Z,17.40
2018-06-25T01:49:26.818Z,17.50
2018-06-25T01:51:55.270Z,17.30
2018-06-25T01:54:23.977Z,17.30
2018-06-25T01:56:52.414Z,17.40
2018-06-25T01:59:20.813Z,17.40
2018-06-25T02:01:49.186Z,17.30
2018-06-25T02:04:17.585Z,17.20
2018-06-25T02:06:45.944Z,17.20
2018-06-25T02:09:14.378Z,17.20
2018-06-25T02:11:42.734Z,17.20
2018-06-25T02:14:11.114Z,17.10
2018-06-25T02:16:39.544Z,17.10
2018-06-25T02:21:36.329Z,17.10
2018-06-25T02:24:04.802Z,17.10
2018-06-25T02:26:33.214Z,17.10
2018-06-25T02:29:01.600Z,17.10
2018-06-25T02:31:30.035Z,17.20
2018-06-25T02:33:58.468Z,17.10
2018-06-25T02:36:26.876Z,17.10
2018-06-25T02:38:55.260Z,17.00
2018-06-25T02:41:23.701Z,17.00
2018-06-25T02:43:52.131Z,17.00
2018-06-25T02:46:20.515Z,17.00
2018-06-25T02:48:48.965Z,17.10
2018-06-25T02:51:17.383Z,17.10
2018-06-25T02:53:45.774Z,16.90
2018-06-25T02:56:14.198Z,16.90
2018-06-25T02:58:42.603Z,16.90
2018-06-25T03:01:10.995Z,16.90
2018-06-25T03:03:39.393Z,16.80
2018-06-25T03:06:07.819Z,16.80
2018-06-25T03:08:36.196Z,16.80
2018-06-25T03:11:04.564Z,16.80
2018-06-25T03:13:32.954Z,16.70
2018-06-25T03:16:01.339Z,16.70
2018-06-25T03:18:29.719Z,16.80
2018-06-25T03:20:58.118Z,16.80
2018-06-25T03:23:26.474Z,16.70
2018-06-25T03:25:54.898Z,16.70
2018-06-25T03:28:23.246Z,16.80
2018-06-25T03:30:51.614Z,16.70
2018-06-25T03:33:20.014Z,16.70
2018-06-25T03:35:48.436Z,16.60
2018-06-25T03:38:16.912Z,16.70
2018-06-25T03:40:45.305Z,16.70
2018-06-25T03:43:13.709Z,16.80
2018-06-25T03:45:42.094Z,16.80
2018-06-25T03:48:10.490Z,16.70
2018-06-25T03:50:38.874Z,16.80
2018-06-25T03:53:07.289Z,16.90
2018-06-25T03:55:35.666Z,16.80
2018-06-25T03:58:04.121Z,16.80
2018-06-25T04:00:32.471Z,16.80
2018-06-25T04:03:00.877Z,16.80
2018-06-25T04:05:29.328Z,16.80
2018-06-25T04:07:57.733Z,16.80
2018-06-25T04:10:26.138Z,16.80
2018-06-25T04:12:54.520Z,16.90
2018-06-25T04:15:22.927Z,16.80
2018-06-25T04:17:51.303Z,16.90
2018-06-25T04:20:19.686Z,16.90
2018-06-25T04:22:48.066Z,16.80
2018-06-25T04:25:16.482Z,16.90
2018-06-25T04:27:44.874Z,16.90
2018-06-25T04:30:13.252Z,16.90
2018-06-25T04:32:41.639Z,16.90
2018-06-25T04:35:10.010Z,16.90
2018-06-25T04:37:38.371Z,16.90
2018-06-25T04:40:06.784Z,16.90
2018-06-25T04:42:35.141Z,16.90
2018-06-25T04:45:03.596Z,16.90
2018-06-25T04:47:32.102Z,16.90
2018-06-25T04:50:00.499Z,17.00
2018-06-25T04:52:28.894Z,17.00
2018-06-25T04:54:57.280Z,17.00
2018-06-25T04:57:25.884Z,17.00
2018-06-25T04:59:54.299Z,17.00
2018-06-25T05:02:22.702Z,17.00
2018-06-25T05:04:51.116Z,17.10
2018-06-25T05:07:19.503Z,17.00
2018-06-25T05:09:47.903Z,17.10
2018-06-25T05:12:16.257Z,17.10
2018-06-25T05:14:44.617Z,17.10
2018-06-25T05:17:13.008Z,17.10
2018-06-25T05:19:41.355Z,17.20
2018-06-25T05:22:09.746Z,17.20
2018-06-25T05:24:38.111Z,17.20
2018-06-25T05:27:06.626Z,17.20
2018-06-25T05:29:35.074Z,17.20
2018-06-25T05:32:04.781Z,17.20
2018-06-25T05:34:33.202Z,17.20
2018-06-25T05:37:01.650Z,17.20
2018-06-25T05:39:30.044Z,17.10
2018-06-25T05:41:58.521Z,17.20
2018-06-25T05:44:27.244Z,17.20
2018-06-25T05:46:55.643Z,17.20
2018-06-25T05:49:24.246Z,17.30
2018-06-25T05:51:52.658Z,17.30
2018-06-25T05:54:20.994Z,17.30
2018-06-25T05:56:49.365Z,17.30
2018-06-25T05:59:17.719Z,17.40
2018-06-25T06:01:46.083Z,17.40
2018-06-25T06:04:14.515Z,17.40
2018-06-25T06:06:42.854Z,17.40
2018-06-25T06:09:11.320Z,17.40
2018-06-25T06:11:39.658Z,17.40
2018-06-25T06:14:08.022Z,17.40
2018-06-25T06:16:36.363Z,17.50
2018-06-25T06:19:04.750Z,17.40
2018-06-25T06:21:33.157Z,17.50
2018-06-25T06:24:01.548Z,17.60
2018-06-25T06:26:29.954Z,17.70
2018-06-25T06:28:58.351Z,17.80
2018-06-25T06:31:26.724Z,17.90
2018-06-25T06:33:55.106Z,17.90
2018-06-25T06:38:51.565Z,18.10
2018-06-25T06:41:19.916Z,18.10
2018-06-25T06:43:48.286Z,18.30
2018-06-25T06:46:16.708Z,18.30
2018-06-25T06:48:45.103Z,18.30
2018-06-25T06:51:13.521Z,18.20
2018-06-25T06:53:41.878Z,18.20
2018-06-25T06:56:10.278Z,18.20
2018-06-25T06:58:38.717Z,18.30
2018-06-25T07:01:07.114Z,18.20
2018-06-25T07:03:35.503Z,18.30
2018-06-25T07:06:03.891Z,18.40
2018-06-25T07:08:32.264Z,18.40
2018-06-25T07:11:00.665Z,18.40
2018-06-25T07:13:29.025Z,18.50
2018-06-25T07:15:57.412Z,18.40
2018-06-25T07:18:25.801Z,18.50
2018-06-25T07:20:54.183Z,18.60
2018-06-25T07:23:22.590Z,18.70
2018-06-25T07:25:50.962Z,18.60
2018-06-25T07:28:19.313Z,18.70
2018-06-25T07:30:47.696Z,18.70
2018-06-25T07:33:16.033Z,18.80
2018-06-25T07:35:44.423Z,18.80
2018-06-25T07:38:12.866Z,18.80
2018-06-25T07:40:41.268Z,18.90
2018-06-25T07:43:09.638Z,18.80
2018-06-25T07:45:38.112Z,18.80
2018-06-25T07:48:06.522Z,18.80
2018-06-25T07:50:34.947Z,18.80
2018-06-25T07:53:03.334Z,18.80
2018-06-25T07:55:31.695Z,18.90
2018-06-25T07:58:00.111Z,18.80
2018-06-25T08:00:28.478Z,18.80
2018-06-25T08:02:56.955Z,18.80
2018-06-25T08:05:25.348Z,18.80
2018-06-25T08:07:53.778Z,18.80
2018-06-25T08:10:22.293Z,18.80
2018-06-25T08:12:50.679Z,18.80
2018-06-25T08:15:19.149Z,18.80
2018-06-25T08:17:47.550Z,18.80
2018-06-25T08:20:15.991Z,18.90
2018-06-25T08:22:44.420Z,18.90
2018-06-25T08:25:12.831Z,19.00
2018-06-25T08:27:41.253Z,19.00
2018-06-25T08:30:09.684Z,19.10
2018-06-25T08:32:38.050Z,19.10
2018-06-25T08:35:06.548Z,19.10
2018-06-25T08:37:34.935Z,19.10
2018-06-25T08:40:03.431Z,19.00
2018-06-25T08:42:31.808Z,19.10
2018-06-25T08:45:00.207Z,19.10
2018-06-25T08:47:28.630Z,19.10
2018-06-25T08:49:57.036Z,19.20
2018-06-25T08:52:25.402Z,19.20
2018-06-25T08:54:53.836Z,19.20
2018-06-25T08:57:22.278Z,19.20
2018-06-25T08:59:50.703Z,19.30
2018-06-25T09:02:19.097Z,19.40
2018-06-25T09:04:47.461Z,19.40
2018-06-25T09:07:15.908Z,19.40
2018-06-25T09:09:44.275Z,19.30
2018-06-25T09:12:12.653Z,19.30
2018-06-25T09:14:41.038Z,19.20
2018-06-25T09:17:09.462Z,19.20
2018-06-25T09:19:37.878Z,19.20
2018-06-25T09:22:06.349Z,19.20
2018-06-25T09:24:34.699Z,19.20
2018-06-25T09:27:03.132Z,19.10
2018-06-25T09:29:31.494Z,19.10
2018-06-25T09:31:59.968Z,19.20
2018-06-25T09:34:33.724Z,19.20
2018-06-25T09:37:02.150Z,19.50
2018-06-25T09:39:30.540Z,20.20
2018-06-25T09:41:58.938Z,20.80
2018-06-25T09:44:27.336Z,21.50
2018-06-25T09:46:55.764Z,21.90
2018-06-25T09:49:24.105Z,22.00
2018-06-25T09:51:52.450Z,21.80
2018-06-25T09:54:20.839Z,21.50
2018-06-25T09:56:49.294Z,21.30
2018-06-25T09:59:17.708Z,21.20
2018-06-25T10:01:46.185Z,20.90
2018-06-25T10:04:14.536Z,20.70
2018-06-25T10:06:42.935Z,20.60
2018-06-25T10:09:12.349Z,20.50
2018-06-25T10:11:41.287Z,20.50
2018-06-25T10:14:09.630Z,20.50
2018-06-25T10:16:38.000Z,20.50
2018-06-25T10:19:06.371Z,20.50
2018-06-25T10:21:34.734Z,20.50
2018-06-25T10:24:03.155Z,20.60
2018-06-25T10:26:31.546Z,20.70
2018-06-25T10:28:59.894Z,20.80
2018-06-25T10:31:28.318Z,20.80
2018-06-25T10:33:56.687Z,20.80
2018-06-25T10:36:25.271Z,20.80
2018-06-25T10:38:53.680Z,20.70
2018-06-25T10:41:22.124Z,20.70
2018-06-25T10:43:50.553Z,20.70
2018-06-25T10:46:20.039Z,20.70
2018-06-25T10:48:48.615Z,20.60
2018-06-25T10:51:16.991Z,20.70
2018-06-25T10:53:45.415Z,20.70
2018-06-25T10:56:13.822Z,20.80
2018-06-25T10:58:42.243Z,20.70
2018-06-25T11:01:10.754Z,20.70
2018-06-25T11:03:39.119Z,20.80
2018-06-25T11:06:09.043Z,20.80
2018-06-25T11:08:38.166Z,20.80
2018-06-25T11:11:06.578Z,20.80
2018-06-25T11:13:35.020Z,20.80
2018-06-25T11:16:03.475Z,20.90
2018-06-25T11:18:31.992Z,20.90
2018-06-25T11:21:00.422Z,21.00
2018-06-25T11:23:28.791Z,21.10
2018-06-25T11:25:57.173Z,21.20
2018-06-25T11:28:25.640Z,21.20
2018-06-25T11:30:54.386Z,21.20
2018-06-25T11:33:23.078Z,21.30
2018-06-25T11:35:51.536Z,21.20
2018-06-25T11:38:20.091Z,21.20
2018-06-25T11:40:48.482Z,21.10
2018-06-25T11:43:16.825Z,21.00
2018-06-25T11:45:45.221Z,21.00
2018-06-25T11:48:13.803Z,21.00
2018-06-25T11:50:42.168Z,21.00
2018-06-25T11:53:10.514Z,21.00
2018-06-25T11:55:38.882Z,21.00
2018-06-25T11:58:07.235Z,21.00
2018-06-25T12:00:35.672Z,21.10
2018-06-25T12:03:04.174Z,21.20
2018-06-25T12:05:32.410Z,21.20
2018-06-25T12:08:00.813Z,21.30
2018-06-25T12:10:29.245Z,21.30
2018-06-25T12:12:57.690Z,21.30
2018-06-25T12:15:26.053Z,21.30
2018-06-25T12:17:54.406Z,21.30
2018-06-25T12:20:22.766Z,21.20
2018-06-25T12:25:19.178Z,21.20
2018-06-25T12:27:47.589Z,21.30
2018-06-25T12:30:15.935Z,21.30
2018-06-25T12:32:44.310Z,21.30
2018-06-25T12:37:40.857Z,21.40
2018-06-25T12:40:09.304Z,21.40
2018-06-25T12:42:37.694Z,21.50
2018-06-25T12:45:06.137Z,21.50
2018-06-25T12:47:34.502Z,21.50
2018-06-25T12:50:02.982Z,21.50
2018-06-25T12:52:31.526Z,21.50
2018-06-25T12:54:59.937Z,21.50
2018-06-25T12:57:28.374Z,21.50
2018-06-25T12:59:56.829Z,21.50
2018-06-25T13:02:25.299Z,21.40
2018-06-25T13:04:53.673Z,21.40
2018-06-25T13:07:22.099Z,21.40
2018-06-25T13:09:50.470Z,21.40
2018-06-25T13:12:18.810Z,21.50
2018-06-25T13:14:47.259Z,21.60
2018-06-25T13:17:15.627Z,21.50
2018-06-25T13:19:44.064Z,21.60
2018-06-25T13:22:12.476Z,21.60
2018-06-25T13:24:40.810Z,21.60
2018-06-25T13:27:09.190Z,21.60
2018-06-25T13:29:37.580Z,21.50
2018-06-25T13:32:05.943Z,21.50
2018-06-25T13:34:34.695Z,21.50
2018-06-25T13:37:03.074Z,21.50
2018-06-25T13:39:31.479Z,21.50
2018-06-25T13:42:00.012Z,21.50
2018-06-25T13:44:28.485Z,21.50
2018-06-25T13:46:56.831Z,21.50
2018-06-25T13:49:25.206Z,21.50
2018-06-25T13:51:53.633Z,21.60
2018-06-25T13:54:22.101Z,21.60
2018-06-25T13:56:50.618Z,21.70
2018-06-25T13:59:18.989Z,21.70
2018-06-25T14:01:47.450Z,21.70
2018-06-25T14:04:15.868Z,21.60
2018-06-25T14:06:44.283Z,21.50
2018-06-25T14:09:12.812Z,21.50
2018-06-25T14:11:41.658Z,21.60
2018-06-25T14:14:10.247Z,21.60
2018-06-25T14:16:39.432Z,21.60
2018-06-25T14:19:07.769Z,21.60
2018-06-25T14:21:36.244Z,21.60
2018-06-25T14:24:10.078Z,21.70
2018-06-25T14:26:43.163Z,21.70
2018-06-25T14:29:16.901Z,21.80
2018-06-25T14:31:45.317Z,21.90
2018-06-25T14:34:19.232Z,21.90
2018-06-25T14:36:47.631Z,21.90
2018-06-25T14:39:20.455Z,21.90
2018-06-25T14:41:48.846Z,21.90
2018-06-25T14:44:17.214Z,21.90
2018-06-25T14:46:45.579Z,21.90
2018-06-25T14:49:13.943Z,21.90
2018-06-25T14:51:42.431Z,21.90
2018-06-25T14:54:10.875Z,21.90
2018-06-25T14:59:07.688Z,21.90
2018-06-25T15:01:36.179Z,21.90
2018-06-25T15:04:04.724Z,22.00
2018-06-25T15:06:33.096Z,22.00
2018-06-25T15:09:01.446Z,22.00
2018-06-25T15:11:29.861Z,22.10
2018-06-25T15:13:58.269Z,22.10
2018-06-25T15:16:26.739Z,22.00
2018-06-25T15:18:55.456Z,22.00
2018-06-25T15:21:23.861Z,22.10
2018-06-25T15:23:52.328Z,22.10
2018-06-25T15:26:26.605Z,22.10
2018-06-25T15:28:55.015Z,22.10
2018-06-25T15:31:23.394Z,22.20
2018-06-25T15:33:51.735Z,22.20
2018-06-25T15:36:20.102Z,22.20
2018-06-25T15:38:48.470Z,22.20
2018-06-25T15:41:16.877Z,22.30
2018-06-25T15:43:45.298Z,22.30
2018-06-25T15:46:13.657Z,22.20
2018-06-25T15:48:42.014Z,22.20
2018-06-25T15:51:10.362Z,22.20
2018-06-25T15:53:38.749Z,22.20
2018-06-25T15:56:07.132Z,22.20
2018-06-25T15:58:35.505Z,22.20
2018-06-25T16:01:03.859Z,22.20
2018-06-25T16:03:32.268Z,22.30
2018-06-25T16:06:00.666Z,22.30
2018-06-25T16:08:29.082Z,22.20
2018-06-25T16:10:57.511Z,22.30
2018-06-25T16:13:25.905Z,22.30
2018-06-25T16:15:54.264Z,22.20
2018-06-25T16:18:22.666Z,22.30
2018-06-25T16:20:56.713Z,22.30
2018-06-25T16:23:25.204Z,22.30
2018-06-25T16:25:53.555Z,22.30
2018-06-25T16:28:21.981Z,22.30
2018-06-25T16:30:50.406Z,22.30
2018-06-25T16:33:18.763Z,22.30
2018-06-25T16:35:47.223Z,22.30
2018-06-25T16:38:15.593Z,22.30
2018-06-25T16:40:44.386Z,22.30
2018-06-25T16:43:12.810Z,22.30
2018-06-25T16:45:41.798Z,22.30
2018-06-25T16:48:10.142Z,22.30
2018-06-25T16:50:38.515Z,22.40
2018-06-25T16:53:06.941Z,22.30
2018-06-25T16:55:35.301Z,22.40
2018-06-25T16:58:03.740Z,22.40
2018-06-25T17:00:32.133Z,22.40
2018-06-25T17:03:00.523Z,22.40
2018-06-25T17:05:28.926Z,22.40
2018-06-25T17:10:25.369Z,22.30
2018-06-25T17:12:53.775Z,22.30
2018-06-25T17:15:22.436Z,22.30
2018-06-25T17:17:50.825Z,22.30
2018-06-25T17:20:19.217Z,22.30
2018-06-25T17:22:47.579Z,22.20
2018-06-25T17:25:15.946Z,22.30
2018-06-25T17:27:44.332Z,22.30
2018-06-25T17:30:12.714Z,22.20
2018-06-25T17:32:41.082Z,22.20
2018-06-25T17:35:09.539Z,22.20
2018-06-25T17:37:37.915Z,22.20
2018-06-25T17:40:06.411Z,22.20
2018-06-25T17:42:34.845Z,22.20
2018-06-25T17:45:03.323Z,22.20
2018-06-25T17:47:31.744Z,22.20
2018-06-25T17:50:00.126Z,22.10
2018-06-25T17:52:28.530Z,22.20
2018-06-25T17:54:57.007Z,22.20
2018-06-25T17:57:25.479Z,22.10
2018-06-25T17:59:53.867Z,22.10
2018-06-25T18:02:22.197Z,22.10
2018-06-25T18:04:50.549Z,22.00
2018-06-25T18:07:18.975Z,22.10
2018-06-25T18:09:47.317Z,22.00
2018-06-25T18:12:15.705Z,22.00
2018-06-25T18:14:44.101Z,22.00
2018-06-25T18:17:12.452Z,22.00
2018-06-25T18:19:41.003Z,22.00
2018-06-25T18:22:09.728Z,22.00
2018-06-25T18:24:38.235Z,22.00
2018-06-25T18:27:06.888Z,22.00
2018-06-25T18:29:35.303Z,21.90
2018-06-25T18:32:03.778Z,22.00
2018-06-25T18:34:32.111Z,22.00
2018-06-25T18:37:00.488Z,21.90
2018-06-25T18:39:28.886Z,21.90
2018-06-25T18:41:57.267Z,21.90
2018-06-25T18:44:25.738Z,21.90
2018-06-25T18:46:54.155Z,21.80
2018-06-25T18:49:22.822Z,21.80
2018-06-25T18:51:51.285Z,21.80
2018-06-25T18:54:19.709Z,21.70
2018-06-25T18:56:48.130Z,21.70
2018-06-25T18:59:16.535Z,21.60
2018-06-25T19:01:44.999Z,21.60
2018-06-25T19:04:13.398Z,21.60
2018-06-25T19:06:41.803Z,21.60
2018-06-25T19:09:11.536Z,21.50
2018-06-25T19:11:40.230Z,21.50
2018-06-25T19:14:08.774Z,21.40
2018-06-25T19:16:37.155Z,21.40
2018-06-25T19:19:05.597Z,21.30
2018-06-25T19:21:36.001Z,21.30
2018-06-25T19:24:04.459Z,21.30
2018-06-25T19:29:00.960Z,21.40
2018-06-25T19:31:29.359Z,21.40
2018-06-25T19:33:57.793Z,21.40
2018-06-25T19:36:26.208Z,21.30
2018-06-25T19:38:54.644Z,21.30
2018-06-25T19:41:23.049Z,21.30
2018-06-25T19:43:51.455Z,21.10
2018-06-25T19:46:20.709Z,21.00
2018-06-25T19:48:49.103Z,21.00
2018-06-25T19:51:17.543Z,21.10
2018-06-25T19:53:45.902Z,21.10
2018-06-25T19:56:14.318Z,21.00
2018-06-25T19:58:42.659Z,21.00
2018-06-25T20:01:11.014Z,20.90
2018-06-25T20:03:39.419Z,20.90
2018-06-25T20:06:07.790Z,20.90
2018-06-25T20:08:36.160Z,20.90
2018-06-25T20:11:04.560Z,20.80
2018-06-25T20:13:32.961Z,20.80
2018-06-25T20:16:01.352Z,20.80
2018-06-25T20:18:29.770Z,20.70
2018-06-25T20:20:58.394Z,20.70
2018-06-25T20:23:26.773Z,20.60
2018-06-25T20:25:55.180Z,20.60
2018-06-25T20:28:23.523Z,20.60
2018-06-25T20:30:51.918Z,20.50
2018-06-25T20:33:20.286Z,20.50
2018-06-25T20:35:48.652Z,20.50
2018-06-25T20:38:17.053Z,20.50
2018-06-25T20:40:45.482Z,20.50
2018-06-25T20:43:14.132Z,20.50
2018-06-25T20:45:42.538Z,20.50
2018-06-25T20:48:10.958Z,20.40
2018-06-25T20:50:39.403Z,20.40
2018-06-25T20:53:07.840Z,20.40
2018-06-25T20:55:36.263Z,20.40
2018-06-25T20:58:04.705Z,20.40
2018-06-25T21:00:33.146Z,20.40
2018-06-25T21:03:01.548Z,20.40
2018-06-25T21:05:29.968Z,20.40
2018-06-25T21:07:58.366Z,20.50
2018-06-25T21:10:26.979Z,20.50
2018-06-25T21:12:55.682Z,20.40
2018-06-25T21:15:24.206Z,20.40
2018-06-25T21:17:52.587Z,20.40
2018-06-25T21:20:21.028Z,20.50
2018-06-25T21:22:49.414Z,20.50
2018-06-25T21:25:17.860Z,20.40
2018-06-25T21:27:46.260Z,20.40
2018-06-25T21:30:14.733Z,20.40
2018-06-25T21:32:43.160Z,20.40
2018-06-25T21:35:11.543Z,20.40
2018-06-25T21:37:39.921Z,20.30
2018-06-25T21:40:08.403Z,20.30
2018-06-25T21:42:36.805Z,20.30
2018-06-25T21:45:05.384Z,20.30
2018-06-25T21:47:33.786Z,20.20
2018-06-25T21:50:02.210Z,20.20
2018-06-25T21:52:30.629Z,20.10
2018-06-25T21:54:58.986Z,20.10
2018-06-25T21:57:27.356Z,20.10
2018-06-25T21:59:55.753Z,20.00
2018-06-25T22:02:24.108Z,20.00
2018-06-25T22:04:52.502Z,20.00
2018-06-25T22:07:20.856Z,19.90
2018-06-25T22:09:49.250Z,19.90
2018-06-25T22:12:17.619Z,19.80
2018-06-25T22:14:46.057Z,19.70
2018-06-25T22:17:14.426Z,19.80
2018-06-25T22:19:42.802Z,19.80
2018-06-25T22:22:11.257Z,19.70
2018-06-25T22:24:39.648Z,19.70
2018-06-25T22:27:08.028Z,19.70
2018-06-25T22:29:36.456Z,19.60
2018-06-25T22:32:04.891Z,19.70
2018-06-25T22:34:33.299Z,19.80
2018-06-25T22:37:01.659Z,19.70
2018-06-25T22:39:30.058Z,19.60
2018-06-25T22:41:58.449Z,19.40
2018-06-25T22:44:26.831Z,19.50
2018-06-25T22:49:23.261Z,19.30
2018-06-25T22:51:51.642Z,19.30
2018-06-25T22:54:19.984Z,19.30
2018-06-25T22:56:48.402Z,19.10
2018-06-25T22:59:16.745Z,19.20
2018-06-25T23:01:45.165Z,19.30
2018-06-25T23:04:13.499Z,19.30
2018-06-25T23:06:41.883Z,19.30
2018-06-25T23:09:11.073Z,19.30
2018-06-25T23:11:39.462Z,19.30
2018-06-25T23:14:07.850Z,19.30
2018-06-25T23:16:36.189Z,19.20
2018-06-25T23:19:04.558Z,19.20
2018-06-25T23:21:32.946Z,19.10
2018-06-25T23:24:01.310Z,19.10
2018-06-25T23:26:29.650Z,19.40
2018-06-25T23:28:58.068Z,19.40
2018-06-25T23:31:26.397Z,19.50
2018-06-25T23:33:54.739Z,19.60
2018-06-25T23:36:23.147Z,19.50
2018-06-25T23:38:51.482Z,19.40
2018-06-25T23:41:19.931Z,19.50
2018-06-25T23:43:48.310Z,19.60
2018-06-25T23:46:16.721Z,19.70
2018-06-25T23:48:45.112Z,19.60
2018-06-25T23:51:13.537Z,19.50
2018-06-25T23:53:41.900Z,19.40
2018-06-25T23:56:10.270Z,19.40
2018-06-25T23:58:38.622Z,19.50
